Time;durP1;ratioP1;P1;durP2;ratioP2;P2;SDS_P1;SDS_P2;PMS_P1;PMS_P2;Temp;Humidity;BMP_temperature;BMP_pressure;BME280_temperature;BME280_humidity;BME280_pressure;Samples;Min_cycle;Max_cycle;Signal;HPM_P1;HPM_P2
2021/07/14 00:02:55;;;;;;;;;25.00;23.00;;;;;29.12;50.05;98196.50;6079578;28;97168;-63
2021/07/14 00:06:13;;;;;;;;;27.00;24.20;;;;;29.13;49.40;98186.19;6073951;28;98355;-63
2021/07/14 00:09:16;;;;;;;;;25.00;24.00;;;;;29.13;50.07;98189.78;6063162;28;96456;-61
2021/07/14 00:12:20;;;;;;;;;23.20;22.20;;;;;29.13;49.71;98195.31;6061939;28;100434;-63
2021/07/14 00:22:10;;;;;;;;;27.00;25.00;;;;;29.04;49.90;98188.34;6077412;28;97519;-63
2021/07/14 00:25:14;;;;;;;;;23.00;23.00;;;;;29.00;50.61;98196.59;6076407;28;96709;-63
2021/07/14 00:28:18;;;;;;;;;24.60;24.40;;;;;28.99;50.71;98192.22;6070897;28;97734;-62
2021/07/14 00:31:21;;;;;;;;;22.20;21.20;;;;;29.01;50.18;98197.41;6064693;28;96860;-62
2021/07/14 00:34:25;;;;;;;;;25.00;24.40;;;;;28.95;50.47;98196.88;6083101;28;97468;-61
2021/07/14 00:37:30;;;;;;;;;23.60;22.60;;;;;28.96;50.42;98206.00;6059518;28;96960;-63
2021/07/14 00:40:33;;;;;;;;;24.60;24.00;;;;;28.84;50.38;98195.78;6077766;28;97364;-61
2021/07/14 00:43:37;;;;;;;;;28.00;25.40;;;;;28.85;50.92;98202.97;6066172;28;99303;-63
2021/07/14 00:46:40;;;;;;;;;24.40;23.80;;;;;28.56;51.10;98164.53;6074062;28;96613;-62
2021/07/14 00:49:44;;;;;;;;;24.00;23.00;;;;;28.69;51.06;98214.00;6091204;28;96821;-63
2021/07/14 00:52:49;;;;;;;;;26.00;25.00;;;;;28.59;51.49;98205.44;6076879;28;97243;-63
2021/07/14 00:55:52;;;;;;;;;24.40;23.40;;;;;28.48;51.48;98205.16;6052433;28;100499;-61
2021/07/14 00:58:57;;;;;;;;;28.00;27.00;;;;;28.41;51.75;98208.53;6087180;28;97265;-62
2021/07/14 01:02:01;;;;;;;;;24.20;22.80;;;;;28.38;52.23;98211.22;6066318;28;97617;-64
2021/07/14 01:05:07;;;;;;;;;25.25;24.00;;;;;28.34;52.33;98208.34;6069137;28;97463;-63
2021/07/14 01:08:18;;;;;;;;;26.75;24.75;;;;;28.29;52.49;98214.16;6067611;28;97461;-63
2021/07/14 01:11:26;;;;;;;;;28.50;26.50;;;;;28.27;52.16;98208.16;6072316;28;97489;-62
2021/07/14 01:14:42;;;;;;;;;28.00;25.00;;;;;28.23;52.79;98203.66;6068593;28;96645;-63
2021/07/14 01:17:52;;;;;;;;;26.00;24.20;;;;;28.20;52.65;98198.84;6044579;28;99584;-63
2021/07/14 01:21:00;;;;;;;;;23.00;23.00;;;;;28.20;52.50;98199.63;6073943;28;97518;-62
2021/07/14 01:24:11;;;;;;;;;27.00;25.00;;;;;28.13;53.00;98202.22;6073515;28;96969;-62
2021/07/14 01:27:19;;;;;;;;;26.00;24.00;;;;;28.13;52.88;98207.75;6068543;28;97572;-63
2021/07/14 01:30:23;;;;;;;;;26.00;23.00;;;;;28.09;52.80;98192.16;6071286;28;96663;-63
2021/07/14 01:33:31;;;;;;;;;25.60;24.00;;;;;28.05;52.91;98197.63;6071320;28;99679;-62
2021/07/14 01:36:37;;;;;;;;;25.00;23.00;;;;;28.01;53.55;98197.50;6077893;28;97012;-63
2021/07/14 01:39:44;;;;;;;;;24.40;24.40;;;;;28.00;nan;98193.09;6077470;28;96620;-63
2021/07/14 01:42:53;;;;;;;;;26.25;24.00;;;;;27.95;53.51;98198.13;6076797;28;97458;-63
2021/07/14 01:45:57;;;;;;;;;27.50;25.25;;;;;27.92;54.01;98204.34;6070183;28;96640;-62
2021/07/14 01:49:04;;;;;;;;;26.25;25.00;;;;;27.87;53.77;98205.41;6059002;28;97195;-63
2021/07/14 01:52:12;;;;;;;;;27.00;26.00;;;;;27.85;54.61;98204.97;6078902;28;96573;-63
2021/07/14 01:55:17;;;;;;;;;27.00;27.00;;;;;27.84;54.26;98195.03;6061449;28;97191;-63
2021/07/14 01:58:25;;;;;;;;;31.00;28.00;;;;;27.83;54.73;98198.94;6069231;28;97895;-63
2021/07/14 02:01:30;;;;;;;;;29.00;28.00;;;;;27.85;54.41;98193.06;6079443;28;96697;-64
2021/07/14 02:04:36;;;;;;;;;28.50;25.00;;;;;27.80;54.71;98201.63;6081290;28;97208;-63
2021/07/14 02:07:40;;;;;;;;;32.00;29.00;;;;;27.78;54.49;98199.19;6055579;28;100443;-64
2021/07/14 02:10:45;;;;;;;;;29.00;27.00;;;;;27.75;54.67;98199.09;6074817;28;97525;-63
2021/07/14 02:13:52;;;;;;;;;33.40;30.00;;;;;27.73;54.83;98199.44;6080289;28;96719;-63
2021/07/14 02:16:59;;;;;;;;;30.20;29.20;;;;;27.77;54.64;98199.53;6077503;28;96562;-62
2021/07/14 02:20:07;;;;;;;;;29.60;27.60;;;;;27.78;55.10;98201.97;6066747;28;96668;-61
2021/07/14 02:23:11;;;;;;;;;30.40;29.00;;;;;27.77;54.99;98205.06;6088021;28;96499;-63
2021/07/14 02:26:14;;;;;;;;;33.00;30.00;;;;;27.65;54.87;98194.06;6071231;28;97414;-62
2021/07/14 02:29:19;;;;;;;;;30.00;29.00;;;;;27.67;55.39;98206.38;6078339;28;97416;-64
2021/07/14 02:32:23;;;;;;;;;29.40;29.40;;;;;27.68;54.84;98207.19;6050741;28;97263;-62
2021/07/14 02:35:29;;;;;;;;;31.60;29.00;;;;;27.68;54.76;98204.41;6085886;28;97125;-64
2021/07/14 02:38:37;;;;;;;;;27.60;26.60;;;;;27.61;54.99;98209.75;6082505;28;97716;-63
2021/07/14 02:41:45;;;;;;;;;30.40;28.20;;;;;27.60;55.27;98205.38;6065083;28;97660;-62
2021/07/14 02:44:53;;;;;;;;;29.40;28.00;;;;;27.59;54.86;98207.34;6062636;28;96966;-63
2021/07/14 02:47:59;;;;;;;;;30.25;27.75;;;;;27.55;55.48;98210.00;6074641;28;97425;-63
2021/07/14 02:51:03;;;;;;;;;30.00;28.00;;;;;27.57;54.85;98207.66;6075879;28;97438;-64
2021/07/14 02:54:22;;;;;;;;;29.00;29.00;;;;;27.61;55.38;98207.00;6068324;28;97459;-63
2021/07/14 02:57:27;;;;;;;;;30.00;29.00;;;;;27.62;55.39;98200.28;6059707;28;97363;-62
2021/07/14 03:00:33;;;;;;;;;28.40;27.40;;;;;27.60;55.09;98197.88;6072782;28;97421;-63
2021/07/14 03:03:36;;;;;;;;;29.00;27.80;;;;;27.56;55.19;98205.28;6071133;28;96769;-63
2021/07/14 03:06:40;;;;;;;;;31.00;29.00;;;;;27.56;55.31;98211.59;6073083;28;96599;-63
2021/07/14 03:09:44;;;;;;;;;28.00;27.00;;;;;27.56;55.20;98210.81;6079144;28;96737;-62
2021/07/14 03:12:49;;;;;;;;;33.00;30.00;;;;;27.56;55.50;98211.59;6079046;28;96582;-63
2021/07/14 03:15:55;;;;;;;;;28.00;27.50;;;;;27.54;55.24;98205.63;6074245;28;97333;-63
2021/07/14 03:18:58;;;;;;;;;29.50;27.75;;;;;27.53;55.76;98206.75;6054215;28;97372;-63
2021/07/14 03:22:02;;;;;;;;;31.00;28.00;;;;;27.56;55.26;98208.81;6065848;28;97529;-63
2021/07/14 03:25:07;;;;;;;;;30.40;28.00;;;;;27.50;55.43;98206.66;6083444;28;96645;-63
2021/07/14 03:28:11;;;;;;;;;32.00;29.00;;;;;27.54;55.51;98204.81;6069868;28;97626;-62
2021/07/14 03:31:16;;;;;;;;;34.00;31.00;;;;;27.69;55.44;98204.06;6048328;28;99695;-63
2021/07/14 03:34:20;;;;;;;;;33.80;31.40;;;;;27.71;55.06;98206.50;6076715;28;98546;-63
2021/07/14 03:37:24;;;;;;;;;29.20;28.00;;;;;27.71;55.61;98190.66;6071460;28;97382;-63
2021/07/14 03:40:28;;;;;;;;;35.50;32.00;;;;;27.76;55.25;98207.03;6069618;28;97674;-63
2021/07/14 03:43:34;;;;;;;;;30.25;30.00;;;;;27.85;55.36;98196.66;6075440;28;97465;-62
2021/07/14 03:46:39;;;;;;;;;35.25;31.25;;;;;27.94;54.71;98190.94;6093582;28;97622;-62
2021/07/14 03:49:45;;;;;;;;;35.00;32.00;;;;;27.99;54.93;98185.16;6074190;28;98857;-62
2021/07/14 03:52:50;;;;;;;;;33.00;30.50;;;;;27.99;55.21;98191.50;6072537;28;96647;-62
2021/07/14 03:55:54;;;;;;;;;32.50;29.75;;;;;27.99;54.90;98191.50;6078884;28;97197;-64
2021/07/14 03:58:58;;;;;;;;;31.50;29.25;;;;;28.05;55.02;98202.34;6056173;28;97138;-63
2021/07/14 04:02:03;;;;;;;;;35.40;32.00;;;;;28.15;54.72;98199.88;6071903;28;97614;-62
2021/07/14 04:05:08;;;;;;;;;32.00;30.50;;;;;28.19;55.01;98206.34;6064914;28;99702;-63
2021/07/14 04:08:16;;;;;;;;;35.20;31.80;;;;;28.24;54.53;98206.09;6064449;28;97339;-62
2021/07/14 04:11:20;;;;;;;;;35.00;31.00;;;;;28.30;54.16;98199.13;6049544;28;98401;-63
2021/07/14 04:14:23;;;;;;;;;32.00;30.00;;;;;28.34;53.86;98200.03;6071984;28;96740;-63
2021/07/14 04:17:28;;;;;;;;;32.80;29.80;;;;;28.40;54.00;98200.56;6055896;28;96740;-63
2021/07/14 04:20:32;;;;;;;;;32.25;30.00;;;;;28.38;54.00;98203.72;6066486;28;97561;-62
2021/07/14 04:23:36;;;;;;;;;33.50;30.00;;;;;28.47;53.53;98197.19;6060964;28;97189;-62
2021/07/14 04:26:42;;;;;;;;;32.00;29.00;;;;;28.47;53.86;98191.63;6051747;28;97013;-63
2021/07/14 04:29:45;;;;;;;;;31.40;30.00;;;;;28.52;53.61;98185.81;6066313;28;97703;-63
2021/07/14 04:32:49;;;;;;;;;29.00;28.67;;;;;28.69;53.74;98196.56;6068643;28;97522;-63
2021/07/14 04:35:53;;;;;;;;;32.25;30.00;;;;;28.82;53.11;98192.59;6073736;28;97720;-63
2021/07/14 04:38:57;;;;;;;;;34.00;30.60;;;;;28.86;53.23;98176.84;6075932;28;97462;-62
2021/07/14 04:42:00;;;;;;;;;30.00;29.00;;;;;29.08;53.17;98192.00;6066326;28;96628;-62
2021/07/14 04:45:04;;;;;;;;;30.00;27.00;;;;;29.21;53.03;98196.31;6074419;28;98060;-61
2021/07/14 04:48:09;;;;;;;;;29.00;27.00;;;;;29.34;52.28;98188.69;6076100;28;97255;-61
2021/07/14 04:51:12;;;;;;;;;31.00;28.60;;;;;29.50;51.41;98186.69;6074997;28;96944;-63
2021/07/14 04:54:16;;;;;;;;;28.40;27.00;;;;;29.64;51.62;98178.66;6070714;28;97038;-63
2021/07/14 04:57:19;;;;;;;;;31.00;30.00;;;;;29.79;51.24;98186.13;6059518;28;98423;-62
2021/07/14 05:00:22;;;;;;;;;35.00;32.00;;;;;29.93;50.75;98182.88;6088813;28;97705;-62
2021/07/14 05:03:27;;;;;;;;;35.40;32.00;;;;;30.02;50.74;98187.03;6074878;28;99125;-62
2021/07/14 05:06:30;;;;;;;;;38.60;34.00;;;;;30.12;50.09;98193.97;6074498;28;98081;-62
2021/07/14 05:09:34;;;;;;;;;36.00;32.00;;;;;30.13;49.25;98201.16;6065807;28;97532;-62
2021/07/14 05:12:37;;;;;;;;;34.00;32.00;;;;;30.19;48.83;98207.22;6081422;28;98252;-61
2021/07/14 05:15:40;;;;;;;;;37.20;32.80;;;;;30.00;48.72;98213.59;6063908;28;96529;-63
2021/07/14 05:18:45;;;;;;;;;37.40;33.00;;;;;29.97;49.47;98212.34;6071212;28;97557;-63
2021/07/14 05:21:48;;;;;;;;;33.80;32.00;;;;;30.05;48.92;98218.88;6075945;28;97411;-63
2021/07/14 05:24:52;;;;;;;;;34.00;31.75;;;;;30.15;49.42;98223.84;6074909;28;97066;-63
2021/07/14 05:27:55;;;;;;;;;34.60;31.00;;;;;30.26;49.00;98222.06;6069192;28;97699;-63
2021/07/14 05:30:58;;;;;;;;;32.00;30.00;;;;;30.43;48.88;98218.03;6054826;28;96745;-62
2021/07/14 05:34:03;;;;;;;;;36.40;32.00;;;;;30.61;49.18;98218.38;6068662;28;98041;-63
2021/07/14 05:37:06;;;;;;;;;36.50;31.50;;;;;30.80;48.41;98210.78;6068472;28;97548;-63
2021/07/14 05:40:10;;;;;;;;;33.60;30.00;;;;;30.98;48.29;98206.31;6061400;28;99779;-63
2021/07/14 05:43:14;;;;;;;;;34.00;31.00;;;;;31.14;47.55;98195.06;6080384;28;97435;-61
2021/07/14 05:46:20;;;;;;;;;35.00;31.00;;;;;31.25;47.27;98193.25;6073904;28;96622;-63
2021/07/14 05:49:25;;;;;;;;;32.00;30.00;;;;;31.40;47.67;98191.47;6074350;28;97096;-62
2021/07/14 05:52:28;;;;;;;;;33.00;30.00;;;;;31.50;46.61;98181.66;6077544;28;96712;-63
2021/07/14 05:55:31;;;;;;;;;34.00;31.00;;;;;31.59;46.95;98169.09;6062992;28;97118;-62
2021/07/14 05:58:35;;;;;;;;;34.75;32.00;;;;;31.72;46.75;98176.03;6072509;28;96579;-63
2021/07/14 06:01:38;;;;;;;;;34.40;30.00;;;;;31.81;46.36;98176.53;6063707;28;96738;-62
2021/07/14 06:04:43;;;;;;;;;36.00;31.00;;;;;31.95;46.49;98175.94;6074656;28;97459;-63
2021/07/14 06:07:46;;;;;;;;;34.00;31.00;;;;;32.08;45.98;98173.69;6050267;28;97453;-63
2021/07/14 06:10:49;;;;;;;;;30.00;28.00;;;;;32.23;45.85;98178.25;6081965;28;96666;-61
2021/07/14 06:13:53;;;;;;;;;32.00;30.00;;;;;32.28;45.43;98157.59;6071293;28;99176;-62
2021/07/14 06:16:56;;;;;;;;;28.20;26.60;;;;;32.52;43.54;98182.16;6074533;28;98057;-62
2021/07/14 06:20:03;;;;;;;;;27.00;26.00;;;;;32.51;43.57;98175.75;6059987;28;97285;-63
2021/07/14 06:23:06;;;;;;;;;30.75;28.00;;;;;32.67;43.95;98175.56;6072511;28;97455;-63
2021/07/14 06:26:10;;;;;;;;;30.60;29.20;;;;;32.80;44.07;98174.06;6074131;28;96822;-64
2021/07/14 06:29:13;;;;;;;;;28.60;26.60;;;;;32.98;43.09;98168.66;6073121;28;97418;-62
2021/07/14 06:32:17;;;;;;;;;30.00;28.60;;;;;33.13;42.55;98158.38;6068474;28;96801;-63
2021/07/14 06:35:22;;;;;;;;;26.60;25.00;;;;;33.24;43.08;98173.22;6063929;28;97493;-64
2021/07/14 06:38:26;;;;;;;;;32.40;29.20;;;;;33.40;43.21;98165.38;6061074;28;97428;-63
2021/07/14 06:41:29;;;;;;;;;32.20;28.00;;;;;33.59;42.61;98165.06;6069767;28;96615;-62
2021/07/14 06:44:36;;;;;;;;;29.00;28.00;;;;;33.78;41.96;98159.19;6072714;28;96891;-64
2021/07/14 06:47:40;;;;;;;;;27.40;27.00;;;;;33.98;42.52;98172.88;6052103;28;98587;-64
2021/07/14 06:50:44;;;;;;;;;29.50;28.00;;;;;34.15;42.77;98181.34;6065402;28;96612;-62
2021/07/14 06:53:48;;;;;;;;;30.00;29.00;;;;;34.24;41.09;98190.19;6067634;28;97559;-64
2021/07/14 06:56:51;;;;;;;;;28.00;27.00;;;;;34.32;41.89;98194.59;6074900;28;97434;-63
2021/07/14 06:59:55;;;;;;;;;25.80;25.80;;;;;34.53;41.30;98193.84;6072574;28;97335;-64
2021/07/14 07:02:58;;;;;;;;;28.00;26.00;;;;;34.59;40.24;98208.25;6071791;28;96619;-64
2021/07/14 07:06:04;;;;;;;;;30.00;27.50;;;;;34.71;41.22;98200.28;6065215;28;98972;-64
2021/07/14 07:09:10;;;;;;;;;30.00;28.00;;;;;34.93;41.09;98197.53;6073452;28;96847;-62
2021/07/14 07:12:13;;;;;;;;;30.00;30.00;;;;;35.07;39.81;98192.72;6058944;28;97284;-62
2021/07/14 07:15:18;;;;;;;;;27.00;26.40;;;;;35.14;39.40;98184.28;6062496;28;97890;-63
2021/07/14 07:18:22;;;;;;;;;35.00;31.00;;;;;35.30;40.66;98191.50;6072027;28;97150;-63
2021/07/14 07:21:34;;;;;;;;;27.00;26.40;;;;;35.48;40.40;98209.91;6070080;28;97499;-62
2021/07/14 07:24:38;;;;;;;;;27.00;26.00;;;;;35.60;40.29;98206.69;6065061;28;96719;-63
2021/07/14 07:27:42;;;;;;;;;29.80;28.40;;;;;35.78;39.39;98209.47;6073414;28;97587;-63
2021/07/14 07:30:45;;;;;;;;;28.00;27.00;;;;;35.96;39.22;98204.63;6070937;28;97090;-62
2021/07/14 07:33:48;;;;;;;;;29.40;28.00;;;;;36.17;38.31;98219.75;6088569;28;97041;-64
2021/07/14 07:36:53;;;;;;;;;29.00;28.00;;;;;36.26;37.83;98206.13;6073137;28;96707;-63
2021/07/14 07:39:57;;;;;;;;;28.60;27.00;;;;;36.30;37.62;98199.28;6064532;28;97627;-63
2021/07/14 07:43:01;;;;;;;;;29.40;27.40;;;;;36.23;37.78;98201.28;6058081;28;97518;-62
2021/07/14 07:46:04;;;;;;;;;26.00;26.00;;;;;36.12;37.25;98192.13;6078648;28;97531;-62
2021/07/14 07:49:09;;;;;;;;;28.00;27.00;;;;;36.11;38.39;98185.72;6057722;28;97956;-62
2021/07/14 07:52:14;;;;;;;;;29.00;26.00;;;;;36.34;37.38;98207.66;6069938;28;98728;-63
2021/07/14 07:55:17;;;;;;;;;30.00;29.00;;;;;36.36;38.12;98208.84;6048735;28;97250;-63
2021/07/14 07:58:21;;;;;;;;;30.00;27.80;;;;;36.46;37.15;98209.97;6087118;28;96615;-63
2021/07/14 08:01:24;;;;;;;;;27.00;25.50;;;;;36.74;37.39;98190.19;6071996;28;97056;-63
2021/07/14 08:04:28;;;;;;;;;30.00;28.75;;;;;37.00;37.75;98196.41;6059449;28;97759;-62
2021/07/14 08:07:33;;;;;;;;;25.00;23.80;;;;;37.23;37.16;98205.06;6092133;28;97212;-62
2021/07/14 08:10:36;;;;;;;;;27.00;25.20;;;;;37.47;35.96;98200.44;6088532;28;96969;-62
2021/07/14 08:13:40;;;;;;;;;29.00;27.00;;;;;37.60;36.19;98202.31;6073051;28;97130;-63
2021/07/14 08:16:43;;;;;;;;;29.00;27.00;;;;;37.62;35.89;98207.53;6088445;28;96855;-64
2021/07/14 08:19:47;;;;;;;;;28.00;27.00;;;;;37.76;36.40;98223.47;6059149;28;97532;-62
2021/07/14 08:22:53;;;;;;;;;28.00;26.00;;;;;37.91;35.82;98224.91;6053915;28;96588;-63
2021/07/14 08:25:56;;;;;;;;;29.00;27.60;;;;;38.07;36.76;98216.69;6068052;28;97559;-63
2021/07/14 08:29:00;;;;;;;;;32.00;28.00;;;;;38.30;35.50;98218.81;6056763;28;97815;-62
2021/07/14 08:32:03;;;;;;;;;31.00;29.00;;;;;38.35;35.33;98221.16;6082039;28;96573;-63
2021/07/14 08:35:08;;;;;;;;;30.00;29.00;;;;;38.49;36.28;98224.59;6063427;28;96658;-63
2021/07/14 08:38:13;;;;;;;;;30.75;29.75;;;;;38.71;35.28;98225.06;6069929;28;96848;-63
2021/07/14 08:41:19;;;;;;;;;30.00;29.40;;;;;38.89;34.59;98224.84;6079148;28;97510;-63
2021/07/14 08:44:24;;;;;;;;;28.00;27.00;;;;;39.00;34.00;98219.81;6089716;28;96723;-62
2021/07/14 08:47:30;;;;;;;;;30.60;28.00;;;;;39.14;34.45;98224.44;6070549;28;97588;-62
2021/07/14 08:50:33;;;;;;;;;29.60;28.60;;;;;39.32;33.92;98228.59;6071622;28;97480;-61
2021/07/14 08:53:38;;;;;;;;;29.00;28.40;;;;;39.44;33.46;98221.50;6074104;28;97546;-62
2021/07/14 08:56:41;;;;;;;;;29.60;28.00;;;;;39.53;32.99;98226.63;6093581;28;96577;-63
2021/07/14 08:59:46;;;;;;;;;25.00;25.00;;;;;39.53;34.37;98220.97;6092862;28;96511;-63
2021/07/14 09:02:50;;;;;;;;;30.00;28.00;;;;;39.46;33.76;98233.19;6066363;28;99984;-63
2021/07/14 09:05:53;;;;;;;;;27.00;26.00;;;;;39.37;33.41;98230.13;6083538;28;97918;-62
2021/07/14 09:08:58;;;;;;;;;29.20;27.80;;;;;39.41;33.81;98239.31;6083755;28;97018;-62
2021/07/14 09:12:02;;;;;;;;;31.20;29.00;;;;;39.32;34.31;98237.06;6084503;28;96803;-61
2021/07/14 09:15:07;;;;;;;;;30.60;28.60;;;;;39.16;34.47;98238.91;6066809;28;97502;-62
2021/07/14 09:18:15;;;;;;;;;31.40;29.40;;;;;38.99;33.05;98250.06;6076600;28;96980;-62
2021/07/14 09:21:18;;;;;;;;;32.00;30.00;;;;;38.95;34.97;98248.53;6091134;28;96606;-63
2021/07/14 09:24:29;;;;;;;;;30.00;29.00;;;;;38.90;35.20;98249.78;6065048;28;97511;-63
2021/07/14 09:27:36;;;;;;;;;30.40;29.40;;;;;38.85;34.30;98261.53;6066752;28;97980;-62
2021/07/14 09:30:41;;;;;;;;;31.00;29.40;;;;;38.73;34.97;98264.91;6067467;28;98041;-63
2021/07/14 09:33:45;;;;;;;;;30.00;28.50;;;;;38.68;35.55;98267.41;6070916;28;97837;-63
2021/07/14 09:36:49;;;;;;;;;31.00;30.00;;;;;38.62;35.47;98258.63;6056792;28;96532;-63
2021/07/14 09:39:54;;;;;;;;;31.50;29.50;;;;;38.51;35.52;98258.75;6081802;28;97794;-62
2021/07/14 09:43:01;;;;;;;;;33.40;30.00;;;;;38.53;35.36;98261.97;6071913;28;97452;-63
2021/07/14 09:46:06;;;;;;;;;33.80;31.00;;;;;38.53;36.05;98264.78;6076428;28;98350;-62
2021/07/14 09:49:14;;;;;;;;;33.00;31.40;;;;;38.50;36.02;98262.81;6084539;28;97323;-63
2021/07/14 09:52:20;;;;;;;;;34.00;31.80;;;;;38.55;35.84;98267.97;6042591;28;96793;-63
2021/07/14 09:55:30;;;;;;;;;33.60;30.00;;;;;38.67;35.41;98271.44;6074741;28;97432;-63
2021/07/14 09:58:33;;;;;;;;;32.00;30.00;;;;;38.82;35.53;98275.63;6075354;28;96805;-62
2021/07/14 10:01:42;;;;;;;;;33.00;30.00;;;;;39.00;35.29;98262.91;6089962;28;97509;-63
2021/07/14 10:04:47;;;;;;;;;29.60;28.60;;;;;39.17;34.71;98266.69;6043868;28;96798;-63
2021/07/14 10:07:51;;;;;;;;;29.40;29.00;;;;;39.30;32.28;98273.28;6083414;28;96641;-63
2021/07/14 10:11:12;;;;;;;;;32.00;30.00;;;;;39.38;32.41;98269.19;6058709;28;97404;-63
2021/07/14 10:14:16;;;;;;;;;31.00;30.00;;;;;39.56;32.46;98270.88;6078312;28;97226;-63
2021/07/14 10:17:38;;;;;;;;;29.00;28.00;;;;;39.74;32.95;98265.72;6076802;28;96600;-62
2021/07/14 10:20:44;;;;;;;;;30.40;28.40;;;;;39.99;30.62;98266.06;6062035;28;97446;-63
2021/07/14 10:23:48;;;;;;;;;30.60;29.00;;;;;40.25;29.71;98262.34;6075262;28;99440;-62
2021/07/14 10:26:53;;;;;;;;;27.00;24.00;;;;;40.35;29.46;98266.19;6078866;28;97292;-64
2021/07/14 10:29:56;;;;;;;;;29.00;26.00;;;;;40.51;28.37;98266.25;6066569;28;96516;-64
2021/07/14 10:33:01;;;;;;;;;29.40;28.00;;;;;40.50;29.08;98256.16;6070230;28;96678;-63
2021/07/14 10:36:09;;;;;;;;;28.00;26.80;;;;;40.62;29.15;98258.34;6068195;28;96751;-62
2021/07/14 10:39:17;;;;;;;;;29.00;27.00;;;;;40.66;28.69;98264.69;6082212;28;97274;-62
2021/07/14 10:42:22;;;;;;;;;27.60;27.00;;;;;40.66;30.13;98266.75;6077902;28;97523;-63
2021/07/14 10:45:25;;;;;;;;;27.00;26.40;;;;;40.64;28.74;98272.03;6072873;28;96598;-63
2021/07/14 10:48:28;;;;;;;;;30.00;27.00;;;;;40.62;30.38;98261.16;6076541;28;96494;-62
2021/07/14 10:51:33;;;;;;;;;30.00;28.60;;;;;40.88;30.73;98262.19;6075839;28;96803;-62
2021/07/14 10:54:37;;;;;;;;;29.00;27.00;;;;;41.19;29.47;98251.38;6073737;28;97047;-63
2021/07/14 10:57:42;;;;;;;;;31.60;29.60;;;;;41.44;29.70;98256.41;6081672;28;97486;-63
2021/07/14 11:00:47;;;;;;;;;30.00;29.00;;;;;41.73;30.30;98253.66;6067563;28;97470;-63
2021/07/14 11:03:50;;;;;;;;;26.60;25.00;;;;;41.93;28.06;98251.50;6073252;28;97432;-64
2021/07/14 11:06:55;;;;;;;;;26.40;25.40;;;;;42.06;27.92;98254.38;6086871;28;97268;-63
2021/07/14 11:09:59;;;;;;;;;29.00;26.00;;;;;42.09;27.68;98242.94;6077209;28;97789;-63
2021/07/14 11:13:29;;;;;;;;;29.20;28.00;;;;;42.08;28.55;98241.34;6047882;28;97091;-63
2021/07/14 11:16:34;;;;;;;;;30.40;29.20;;;;;42.22;28.71;98243.00;6076822;28;97503;-64
2021/07/14 11:19:44;;;;;;;;;31.80;30.00;;;;;42.25;28.50;98244.91;6070623;28;96641;-64
2021/07/14 11:22:50;;;;;;;;;31.00;30.00;;;;;42.37;27.91;98240.56;6064826;28;97477;-65
2021/07/14 11:25:56;;;;;;;;;28.50;28.00;;;;;42.26;27.36;98235.19;6070066;28;97621;-63
2021/07/14 11:29:13;;;;;;;;;31.00;30.00;;;;;42.25;27.25;98240.06;6063926;28;96735;-63
2021/07/14 11:50:02;;;;;;;;;30.80;29.00;;;;;41.77;26.60;98243.81;6068391;28;96557;-62
2021/07/14 11:53:31;;;;;;;;;30.40;29.00;;;;;41.98;28.51;98248.13;6045371;28;99615;-62
2021/07/14 11:56:37;;;;;;;;;29.80;29.00;;;;;42.14;27.54;98233.91;6065811;28;97413;-66
2021/07/14 11:59:41;;;;;;;;;31.00;29.00;;;;;42.40;28.13;98248.16;6080927;28;96672;-63
2021/07/14 12:02:59;;;;;;;;;31.00;30.00;;;;;42.59;25.71;98241.50;6058915;28;97046;-63
2021/07/14 12:06:23;;;;;;;;;30.40;29.00;;;;;42.66;26.33;98246.97;6073510;28;97349;-63
2021/07/14 12:09:33;;;;;;;;;29.40;28.00;;;;;42.77;25.56;98236.09;6073377;28;96577;-63
2021/07/14 12:12:36;;;;;;;;;30.40;28.40;;;;;42.77;27.01;98230.41;6073611;28;97403;-62
2021/07/14 12:15:45;;;;;;;;;31.00;30.00;;;;;42.85;26.84;98222.50;6073680;28;97485;-63
2021/07/14 12:18:54;;;;;;;;;34.50;31.00;;;;;42.91;25.30;98226.34;6048380;28;96865;-63
2021/07/14 12:22:04;;;;;;;;;33.50;30.00;;;;;42.71;24.63;98223.75;6081423;28;96483;-62
2021/07/14 12:25:12;;;;;;;;;31.00;29.00;;;;;42.52;26.00;98216.22;6067502;28;96519;-64
2021/07/14 12:28:17;;;;;;;;;29.40;28.00;;;;;42.56;25.87;98222.56;6080575;28;96607;-63
2021/07/14 12:31:22;;;;;;;;;29.40;29.00;;;;;42.59;26.94;98228.13;6080747;28;97277;-64
2021/07/14 12:34:28;;;;;;;;;30.60;29.00;;;;;42.75;25.97;98230.88;6062719;28;97978;-64
2021/07/14 13:51:27;;;;;;;;;28.00;26.60;;;;;41.46;25.88;98186.03;7533529;23;98249;-63
2021/07/14 13:54:33;;;;;;;;;25.00;25.00;;;;;41.31;25.57;98176.31;6065086;28;97937;-64
2021/07/14 13:57:37;;;;;;;;;27.00;26.00;;;;;41.31;25.57;98179.16;6071902;28;96673;-65
2021/07/14 14:00:40;;;;;;;;;27.33;26.00;;;;;41.25;24.52;98169.63;6082034;28;97111;-65
2021/07/14 14:03:57;;;;;;;;;26.00;24.40;;;;;41.21;25.32;98172.53;6071693;28;97489;-64
2021/07/14 14:07:02;;;;;;;;;27.00;26.00;;;;;41.06;25.08;98146.66;6080652;28;97511;-64
2021/07/14 14:10:09;;;;;;;;;27.00;25.00;;;;;41.08;25.58;98154.69;6083325;28;97594;-63
2021/07/14 14:13:30;;;;;;;;;26.00;26.00;;;;;41.12;26.07;98151.78;6073207;28;97449;-63
2021/07/14 14:16:34;;;;;;;;;24.40;22.60;;;;;40.97;25.01;98140.81;6072433;28;96632;-63
2021/07/14 14:19:37;;;;;;;;;24.00;23.00;;;;;40.85;25.20;98129.44;6082924;28;97556;-64
2021/07/14 14:22:42;;;;;;;;;27.00;25.20;;;;;40.75;25.24;98122.00;6071056;28;98160;-63
2021/07/14 14:25:50;;;;;;;;;27.20;25.80;;;;;40.60;26.24;98124.34;6065539;28;96736;-63
2021/07/14 14:28:53;;;;;;;;;27.80;25.80;;;;;40.27;25.67;98126.34;6079727;28;96656;-64
2021/07/14 14:31:56;;;;;;;;;28.00;26.00;;;;;40.09;26.40;98123.88;6052795;28;97874;-63
2021/07/14 14:35:01;;;;;;;;;27.25;26.25;;;;;39.88;27.58;98132.03;6050307;28;98115;-64
2021/07/14 14:38:08;;;;;;;;;26.40;24.80;;;;;39.71;27.03;98142.41;6073010;28;98274;-64
2021/07/14 14:41:11;;;;;;;;;23.33;22.33;;;;;39.50;27.83;98148.47;6066717;28;97670;-64
2021/07/14 14:44:15;;;;;;;;;24.20;23.00;;;;;39.31;28.45;98145.19;6048459;28;97706;-64
2021/07/14 14:47:18;;;;;;;;;24.00;21.00;;;;;39.22;28.72;98155.44;6066536;28;96638;-65
2021/07/14 14:50:21;;;;;;;;;25.00;24.00;;;;;38.97;28.51;98151.03;6066564;28;97455;-64
2021/07/14 14:53:26;;;;;;;;;23.00;22.40;;;;;38.80;29.41;98145.66;6068621;28;97625;-63
2021/07/14 14:56:29;;;;;;;;;25.00;24.00;;;;;38.62;29.52;98145.94;6068247;28;97415;-65
2021/07/14 14:59:33;;;;;;;;;23.00;23.00;;;;;38.45;29.63;98147.81;6064868;28;97244;-63
2021/07/14 15:02:36;;;;;;;;;25.20;22.60;;;;;38.37;30.09;98142.66;6070905;28;97482;-64
2021/07/14 15:05:39;;;;;;;;;25.60;23.60;;;;;38.26;30.33;98142.03;6058909;28;96798;-62
2021/07/14 15:08:44;;;;;;;;;25.40;24.00;;;;;38.13;30.21;98153.06;6049238;28;96624;-65
2021/07/14 15:11:48;;;;;;;;;25.00;25.00;;;;;38.02;30.07;98139.13;6050053;28;99314;-64
2021/07/14 15:14:52;;;;;;;;;26.00;25.00;;;;;37.97;29.93;98122.72;6077653;28;97120;-64
2021/07/14 15:17:57;;;;;;;;;25.25;23.75;;;;;37.91;30.99;98098.28;6057120;28;97874;-64
2021/07/14 15:21:01;;;;;;;;;25.00;24.40;;;;;37.81;30.78;98091.56;6068761;28;97523;-64
2021/07/14 15:24:06;;;;;;;;;25.60;24.00;;;;;37.75;30.87;98093.25;6078446;28;96476;-64
2021/07/14 15:30:30;;;;;;;;;26.33;25.67;;;;;37.67;31.99;98094.56;6069884;28;97490;-64
2021/07/14 15:33:33;;;;;;;;;27.40;26.00;;;;;37.68;31.70;98098.97;6072673;28;97064;-63
2021/07/14 15:36:37;;;;;;;;;25.20;24.00;;;;;37.61;32.30;98105.47;6077472;28;97313;-63
2021/07/14 15:39:42;;;;;;;;;26.00;25.00;;;;;37.58;32.08;98094.28;6057028;28;97461;-64
2021/07/14 15:42:46;;;;;;;;;24.50;24.00;;;;;37.52;32.54;98084.69;6081116;28;98008;-64
2021/07/14 15:45:50;;;;;;;;;24.00;23.20;;;;;37.43;32.51;98071.13;6083489;28;96726;-63
2021/07/14 15:48:53;;;;;;;;;26.00;25.00;;;;;37.35;32.66;98060.38;6044109;28;96550;-64
2021/07/14 15:51:57;;;;;;;;;27.00;27.00;;;;;37.17;33.04;98066.19;6053479;28;96623;-64
2021/07/14 15:55:02;;;;;;;;;26.00;24.00;;;;;37.08;33.56;98085.56;6077925;28;96236;-63